sensor_id;sensor_type;location;lat;lon;timestamp;pressure;altitude;pressure_sealevel;temperature;humidity
37610;BME280;23457;51.966;8.230;2023-03-14T00:01:26;98367.16;;;12.23;93.28
37610;BME280;23457;51.966;8.230;2023-03-14T00:03:52;98370.41;;;12.31;93.26
37610;BME280;23457;51.966;8.230;2023-03-14T00:06:19;98385.06;;;12.35;92.61
37610;BME280;23457;51.966;8.230;2023-03-14T00:08:47;98394.16;;;12.20;93.19
37610;BME280;23457;51.966;8.230;2023-03-14T00:11:20;98402.25;;;12.10;93.83
37610;BME280;23457;51.966;8.230;2023-03-14T00:13:48;98397.44;;;12.27;93.55
37610;BME280;23457;51.966;8.230;2023-03-14T00:16:18;98389.34;;;12.05;94.44
37610;BME280;23457;51.966;8.230;2023-03-14T00:18:45;98392.56;;;11.82;95.42
37610;BME280;23457;51.966;8.230;2023-03-14T00:21:12;98383.06;;;12.14;94.03
37610;BME280;23457;51.966;8.230;2023-03-14T00:23:40;98384.19;;;12.04;94.28
37610;BME280;23457;51.966;8.230;2023-03-14T00:26:12;98390.25;;;12.04;94.62
37610;BME280;23457;51.966;8.230;2023-03-14T00:28:40;98384.06;;;12.08;94.13
37610;BME280;23457;51.966;8.230;2023-03-14T00:31:11;98390.84;;;12.15;93.83
37610;BME280;23457;51.966;8.230;2023-03-14T00:33:40;98375.44;;;12.06;93.78
37610;BME280;23457;51.966;8.230;2023-03-14T00:36:09;98390.09;;;12.10;94.43
37610;BME280;23457;51.966;8.230;2023-03-14T00:38:38;98370.31;;;12.03;94.41
37610;BME280;23457;51.966;8.230;2023-03-14T00:41:13;98363.25;;;12.08;94.32
37610;BME280;23457;51.966;8.230;2023-03-14T00:43:41;98357.09;;;12.11;94.12
37610;BME280;23457;51.966;8.230;2023-03-14T00:46:08;98351.25;;;12.03;94.30
37610;BME280;23457;51.966;8.230;2023-03-14T00:48:35;98340.75;;;12.06;94.25
37610;BME280;23457;51.966;8.230;2023-03-14T00:51:03;98356.34;;;12.06;93.80
37610;BME280;23457;51.966;8.230;2023-03-14T00:53:31;98368.03;;;11.91;95.04
37610;BME280;23457;51.966;8.230;2023-03-14T00:56:02;98365.44;;;11.91;95.20
37610;BME280;23457;51.966;8.230;2023-03-14T00:58:29;98365.41;;;11.93;95.62
37610;BME280;23457;51.966;8.230;2023-03-14T01:00:56;98368.88;;;11.92;95.06
37610;BME280;23457;51.966;8.230;2023-03-14T01:03:24;98368.88;;;11.92;95.92
37610;BME280;23457;51.966;8.230;2023-03-14T01:05:50;98373.13;;;11.96;95.46
37610;BME280;23457;51.966;8.230;2023-03-14T01:08:17;98362.59;;;12.00;94.67
37610;BME280;23457;51.966;8.230;2023-03-14T01:10:44;98353.00;;;12.02;94.53
37610;BME280;23457;51.966;8.230;2023-03-14T01:13:10;98363.31;;;12.05;94.72
37610;BME280;23457;51.966;8.230;2023-03-14T01:15:37;98351.78;;;12.15;93.59
37610;BME280;23457;51.966;8.230;2023-03-14T01:18:04;98341.19;;;12.22;92.92
37610;BME280;23457;51.966;8.230;2023-03-14T01:20:31;98339.34;;;12.25;92.92
37610;BME280;23457;51.966;8.230;2023-03-14T01:22:58;98331.22;;;12.05;93.35
37610;BME280;23457;51.966;8.230;2023-03-14T01:25:25;98329.84;;;11.92;93.57
37610;BME280;23457;51.966;8.230;2023-03-14T01:27:52;98332.69;;;12.15;92.70
37610;BME280;23457;51.966;8.230;2023-03-14T01:30:19;98320.25;;;12.25;91.97
37610;BME280;23457;51.966;8.230;2023-03-14T01:32:46;98308.28;;;12.17;91.84
37610;BME280;23457;51.966;8.230;2023-03-14T01:35:12;98309.41;;;12.09;91.96
37610;BME280;23457;51.966;8.230;2023-03-14T01:37:40;98319.91;;;12.06;91.62
37610;BME280;23457;51.966;8.230;2023-03-14T01:40:12;98323.88;;;12.19;90.93
37610;BME280;23457;51.966;8.230;2023-03-14T01:43:12;98310.81;;;12.20;91.68
37610;BME280;23457;51.966;8.230;2023-03-14T01:48:26;98305.88;;;12.11;91.47
37610;BME280;23457;51.966;8.230;2023-03-14T01:50:54;98312.72;;;12.15;91.12
37610;BME280;23457;51.966;8.230;2023-03-14T01:53:21;98312.03;;;12.09;91.21
37610;BME280;23457;51.966;8.230;2023-03-14T01:55:50;98312.59;;;12.18;90.96
37610;BME280;23457;51.966;8.230;2023-03-14T01:58:19;98309.06;;;12.21;90.59
37610;BME280;23457;51.966;8.230;2023-03-14T02:00:46;98308.19;;;12.22;90.49
37610;BME280;23457;51.966;8.230;2023-03-14T02:03:17;98301.38;;;12.16;89.83
37610;BME280;23457;51.966;8.230;2023-03-14T02:05:45;98297.69;;;12.25;90.02
37610;BME280;23457;51.966;8.230;2023-03-14T02:08:19;98307.19;;;12.26;91.41
37610;BME280;23457;51.966;8.230;2023-03-14T02:10:51;98314.28;;;12.21;95.49
37610;BME280;23457;51.966;8.230;2023-03-14T02:13:23;98349.13;;;11.84;100.00
37610;BME280;23457;51.966;8.230;2023-03-14T02:16:10;98350.13;;;11.09;100.00
37610;BME280;23457;51.966;8.230;2023-03-14T02:18:58;98353.94;;;10.95;100.00
37610;BME280;23457;51.966;8.230;2023-03-14T02:24:42;98347.94;;;10.53;100.00
37610;BME280;23457;51.966;8.230;2023-03-14T02:27:15;98335.06;;;10.50;100.00
37610;BME280;23457;51.966;8.230;2023-03-14T02:32:40;98333.97;;;10.60;100.00
37610;BME280;23457;51.966;8.230;2023-03-14T02:35:12;98322.69;;;10.61;100.00
37610;BME280;23457;51.966;8.230;2023-03-14T02:37:45;98324.84;;;10.40;100.00
37610;BME280;23457;51.966;8.230;2023-03-14T02:40:13;98316.00;;;10.51;100.00
37610;BME280;23457;51.966;8.230;2023-03-14T02:42:41;98319.91;;;10.28;100.00
37610;BME280;23457;51.966;8.230;2023-03-14T02:47:43;98314.97;;;10.15;100.00
37610;BME280;23457;51.966;8.230;2023-03-14T02:50:16;98319.84;;;10.31;100.00
37610;BME280;23457;51.966;8.230;2023-03-14T02:52:44;98325.91;;;10.30;100.00
37610;BME280;23457;51.966;8.230;2023-03-14T02:55:12;98311.00;;;9.97;100.00
37610;BME280;23457;51.966;8.230;2023-03-14T02:57:41;98316.66;;;10.17;100.00
37610;BME280;23457;51.966;8.230;2023-03-14T03:00:08;98314.84;;;10.22;100.00
37610;BME280;23457;51.966;8.230;2023-03-14T03:02:37;98325.34;;;10.15;100.00
37610;BME280;23457;51.966;8.230;2023-03-14T03:05:04;98325.00;;;9.88;100.00
37610;BME280;23457;51.966;8.230;2023-03-14T03:07:31;98324.56;;;10.11;100.00
37610;BME280;23457;51.966;8.230;2023-03-14T03:09:58;98330.88;;;9.98;100.00
37610;BME280;23457;51.966;8.230;2023-03-14T03:12:25;98332.34;;;10.13;100.00
37610;BME280;23457;51.966;8.230;2023-03-14T03:14:51;98321.13;;;10.11;100.00
37610;BME280;23457;51.966;8.230;2023-03-14T03:17:18;98330.59;;;10.13;100.00
37610;BME280;23457;51.966;8.230;2023-03-14T03:19:45;98328.88;;;10.12;100.00
37610;BME280;23457;51.966;8.230;2023-03-14T03:22:11;98331.28;;;10.23;100.00
37610;BME280;23457;51.966;8.230;2023-03-14T03:24:40;98318.59;;;10.06;100.00
37610;BME280;23457;51.966;8.230;2023-03-14T03:27:06;98318.38;;;10.20;100.00
37610;BME280;23457;51.966;8.230;2023-03-14T03:29:33;98319.25;;;10.19;100.00
37610;BME280;23457;51.966;8.230;2023-03-14T03:32:00;98317.66;;;10.10;100.00
37610;BME280;23457;51.966;8.230;2023-03-14T03:34:27;98314.06;;;10.19;100.00
37610;BME280;23457;51.966;8.230;2023-03-14T03:36:56;98309.97;;;10.05;100.00
37610;BME280;23457;51.966;8.230;2023-03-14T03:39:24;98314.06;;;10.17;100.00
37610;BME280;23457;51.966;8.230;2023-03-14T03:41:51;98322.28;;;9.96;100.00
37610;BME280;23457;51.966;8.230;2023-03-14T03:44:18;98308.16;;;10.09;100.00
37610;BME280;23457;51.966;8.230;2023-03-14T03:46:45;98315.94;;;10.11;100.00
37610;BME280;23457;51.966;8.230;2023-03-14T03:49:12;98315.97;;;10.09;100.00
37610;BME280;23457;51.966;8.230;2023-03-14T03:51:39;98309.88;;;10.10;100.00
37610;BME280;23457;51.966;8.230;2023-03-14T03:54:06;98306.25;;;10.20;100.00
37610;BME280;23457;51.966;8.230;2023-03-14T03:56:33;98305.56;;;10.11;100.00
37610;BME280;23457;51.966;8.230;2023-03-14T03:58:59;98307.81;;;10.27;100.00
37610;BME280;23457;51.966;8.230;2023-03-14T04:01:26;98309.09;;;10.05;100.00
37610;BME280;23457;51.966;8.230;2023-03-14T04:03:55;98303.69;;;10.16;100.00
37610;BME280;23457;51.966;8.230;2023-03-14T04:06:23;98295.88;;;10.17;100.00
37610;BME280;23457;51.966;8.230;2023-03-14T04:08:54;98301.94;;;10.16;100.00
37610;BME280;23457;51.966;8.230;2023-03-14T04:11:30;98296.91;;;10.10;100.00
37610;BME280;23457;51.966;8.230;2023-03-14T04:14:11;98298.59;;;10.13;100.00
37610;BME280;23457;51.966;8.230;2023-03-14T04:16:38;98307.09;;;10.21;100.00
37610;BME280;23457;51.966;8.230;2023-03-14T04:19:10;98302.84;;;10.15;100.00
37610;BME280;23457;51.966;8.230;2023-03-14T04:21:37;98305.59;;;10.07;100.00
37610;BME280;23457;51.966;8.230;2023-03-14T04:24:09;98299.75;;;9.98;100.00
37610;BME280;23457;51.966;8.230;2023-03-14T04:26:37;98296.09;;;10.08;100.00
37610;BME280;23457;51.966;8.230;2023-03-14T04:29:04;98294.31;;;10.10;100.00
37610;BME280;23457;51.966;8.230;2023-03-14T04:31:31;98285.63;;;10.13;100.00
37610;BME280;23457;51.966;8.230;2023-03-14T04:33:58;98279.81;;;10.00;100.00
37610;BME280;23457;51.966;8.230;2023-03-14T04:36:36;98270.19;;;10.05;100.00
37610;BME280;23457;51.966;8.230;2023-03-14T04:39:09;98269.47;;;9.98;100.00
37610;BME280;23457;51.966;8.230;2023-03-14T04:41:39;98260.13;;;9.88;100.00
37610;BME280;23457;51.966;8.230;2023-03-14T04:44:08;98265.81;;;10.07;100.00
37610;BME280;23457;51.966;8.230;2023-03-14T04:46:35;98254.16;;;9.86;100.00
37610;BME280;23457;51.966;8.230;2023-03-14T04:49:05;98258.91;;;10.06;100.00
37610;BME280;23457;51.966;8.230;2023-03-14T04:51:34;98262.88;;;9.82;100.00
37610;BME280;23457;51.966;8.230;2023-03-14T04:54:01;98256.47;;;10.00;100.00
37610;BME280;23457;51.966;8.230;2023-03-14T04:56:28;98265.06;;;10.02;100.00
37610;BME280;23457;51.966;8.230;2023-03-14T04:58:55;98252.63;;;10.18;100.00
37610;BME280;23457;51.966;8.230;2023-03-14T05:01:22;98257.22;;;10.05;100.00
37610;BME280;23457;51.966;8.230;2023-03-14T05:04:09;98259.00;;;10.01;100.00
37610;BME280;23457;51.966;8.230;2023-03-14T05:07:05;98256.38;;;10.03;100.00
37610;BME280;23457;51.966;8.230;2023-03-14T05:09:47;98249.22;;;10.14;100.00
37610;BME280;23457;51.966;8.230;2023-03-14T05:12:34;98251.59;;;10.26;100.00
37610;BME280;23457;51.966;8.230;2023-03-14T05:15:11;98251.50;;;10.31;100.00
37610;BME280;23457;51.966;8.230;2023-03-14T05:17:55;98249.94;;;10.24;100.00
37610;BME280;23457;51.966;8.230;2023-03-14T05:20:50;98246.00;;;10.03;100.00
37610;BME280;23457;51.966;8.230;2023-03-14T05:23:36;98237.91;;;10.20;100.00
37610;BME280;23457;51.966;8.230;2023-03-14T05:26:23;98231.88;;;10.16;100.00
37610;BME280;23457;51.966;8.230;2023-03-14T05:29:01;98235.00;;;10.33;100.00
37610;BME280;23457;51.966;8.230;2023-03-14T05:31:48;98223.13;;;10.23;100.00
37610;BME280;23457;51.966;8.230;2023-03-14T05:34:24;98230.69;;;10.32;100.00
37610;BME280;23457;51.966;8.230;2023-03-14T05:37:24;98224.06;;;10.19;100.00
37610;BME280;23457;51.966;8.230;2023-03-14T05:40:09;98222.94;;;10.31;100.00
37610;BME280;23457;51.966;8.230;2023-03-14T05:42:55;98226.25;;;10.37;100.00
37610;BME280;23457;51.966;8.230;2023-03-14T05:45:41;98234.50;;;10.15;100.00
37610;BME280;23457;51.966;8.230;2023-03-14T05:48:34;98221.50;;;10.16;100.00
37610;BME280;23457;51.966;8.230;2023-03-14T05:51:33;98227.84;;;10.03;100.00
37610;BME280;23457;51.966;8.230;2023-03-14T05:54:15;98225.66;;;9.83;100.00
37610;BME280;23457;51.966;8.230;2023-03-14T05:57:11;98220.44;;;9.86;100.00
37610;BME280;23457;51.966;8.230;2023-03-14T05:59:49;98220.41;;;9.88;100.00
37610;BME280;23457;51.966;8.230;2023-03-14T06:02:34;98220.78;;;10.10;100.00
37610;BME280;23457;51.966;8.230;2023-03-14T06:05:11;98230.53;;;10.00;100.00
37610;BME280;23457;51.966;8.230;2023-03-14T06:07:38;98215.03;;;9.95;100.00
37610;BME280;23457;51.966;8.230;2023-03-14T06:10:05;98227.41;;;9.83;100.00
37610;BME280;23457;51.966;8.230;2023-03-14T06:12:32;98212.44;;;9.52;100.00
37610;BME280;23457;51.966;8.230;2023-03-14T06:14:59;98218.56;;;9.50;100.00
37610;BME280;23457;51.966;8.230;2023-03-14T06:17:26;98227.16;;;9.52;100.00
37610;BME280;23457;51.966;8.230;2023-03-14T06:20:04;98228.41;;;9.31;100.00
37610;BME280;23457;51.966;8.230;2023-03-14T06:22:31;98236.72;;;9.50;100.00
37610;BME280;23457;51.966;8.230;2023-03-14T06:24:58;98234.91;;;9.53;100.00
37610;BME280;23457;51.966;8.230;2023-03-14T06:27:25;98232.84;;;9.70;100.00
37610;BME280;23457;51.966;8.230;2023-03-14T06:29:54;98232.22;;;9.59;100.00
37610;BME280;23457;51.966;8.230;2023-03-14T06:32:22;98228.63;;;9.65;100.00
37610;BME280;23457;51.966;8.230;2023-03-14T06:34:51;98228.84;;;9.54;100.00
37610;BME280;23457;51.966;8.230;2023-03-14T06:37:19;98238.84;;;9.74;100.00
37610;BME280;23457;51.966;8.230;2023-03-14T06:39:47;98218.25;;;9.65;100.00
37610;BME280;23457;51.966;8.230;2023-03-14T06:42:30;98233.03;;;9.61;100.00
37610;BME280;23457;51.966;8.230;2023-03-14T06:44:57;98234.03;;;9.54;100.00
37610;BME280;23457;51.966;8.230;2023-03-14T06:47:25;98227.91;;;9.58;100.00
37610;BME280;23457;51.966;8.230;2023-03-14T06:49:52;98236.44;;;9.63;100.00
37610;BME280;23457;51.966;8.230;2023-03-14T06:52:18;98244.22;;;9.63;100.00
37610;BME280;23457;51.966;8.230;2023-03-14T06:54:45;98239.81;;;9.68;100.00
37610;BME280;23457;51.966;8.230;2023-03-14T06:57:12;98239.78;;;9.70;100.00
37610;BME280;23457;51.966;8.230;2023-03-14T06:59:39;98238.31;;;9.55;100.00
37610;BME280;23457;51.966;8.230;2023-03-14T07:02:10;98241.00;;;9.51;100.00
37610;BME280;23457;51.966;8.230;2023-03-14T07:04:38;98238.22;;;9.61;100.00
37610;BME280;23457;51.966;8.230;2023-03-14T07:07:06;98228.72;;;9.60;100.00
37610;BME280;23457;51.966;8.230;2023-03-14T07:09:34;98241.56;;;9.66;100.00
37610;BME280;23457;51.966;8.230;2023-03-14T07:12:02;98233.44;;;9.40;100.00
37610;BME280;23457;51.966;8.230;2023-03-14T07:14:30;98242.56;;;9.61;100.00
37610;BME280;23457;51.966;8.230;2023-03-14T07:16:57;98239.03;;;9.63;100.00
37610;BME280;23457;51.966;8.230;2023-03-14T07:19:23;98238.78;;;9.31;100.00
37610;BME280;23457;51.966;8.230;2023-03-14T07:21:50;98241.81;;;9.53;100.00
37610;BME280;23457;51.966;8.230;2023-03-14T07:24:21;98245.03;;;9.65;100.00
37610;BME280;23457;51.966;8.230;2023-03-14T07:26:48;98244.16;;;9.66;100.00
37610;BME280;23457;51.966;8.230;2023-03-14T07:29:15;98247.47;;;9.75;100.00
37610;BME280;23457;51.966;8.230;2023-03-14T07:31:42;98247.56;;;9.70;100.00
37610;BME280;23457;51.966;8.230;2023-03-14T07:34:09;98244.91;;;9.73;100.00
37610;BME280;23457;51.966;8.230;2023-03-14T07:36:39;98236.50;;;9.60;100.00
37610;BME280;23457;51.966;8.230;2023-03-14T07:39:06;98237.84;;;9.80;100.00
37610;BME280;23457;51.966;8.230;2023-03-14T07:41:53;98239.97;;;9.61;100.00
37610;BME280;23457;51.966;8.230;2023-03-14T07:44:38;98243.91;;;9.79;100.00
37610;BME280;23457;51.966;8.230;2023-03-14T07:47:05;98245.28;;;9.96;100.00
37610;BME280;23457;51.966;8.230;2023-03-14T07:49:32;98239.97;;;10.02;100.00
37610;BME280;23457;51.966;8.230;2023-03-14T07:51:58;98239.44;;;9.87;100.00
37610;BME280;23457;51.966;8.230;2023-03-14T07:54:25;98257.84;;;9.75;100.00
37610;BME280;23457;51.966;8.230;2023-03-14T07:56:52;98249.81;;;9.87;100.00
37610;BME280;23457;51.966;8.230;2023-03-14T07:59:19;98256.25;;;10.11;100.00
37610;BME280;23457;51.966;8.230;2023-03-14T08:01:45;98251.41;;;9.92;100.00
37610;BME280;23457;51.966;8.230;2023-03-14T08:04:12;98255.41;;;10.09;100.00
37610;BME280;23457;51.966;8.230;2023-03-14T08:06:39;98249.31;;;10.11;100.00
37610;BME280;23457;51.966;8.230;2023-03-14T08:09:05;98248.75;;;9.97;100.00
37610;BME280;23457;51.966;8.230;2023-03-14T08:11:32;98248.56;;;10.04;100.00
37610;BME280;23457;51.966;8.230;2023-03-14T08:13:59;98257.59;;;10.28;100.00
37610;BME280;23457;51.966;8.230;2023-03-14T08:16:26;98248.75;;;10.38;100.00
37610;BME280;23457;51.966;8.230;2023-03-14T08:18:52;98246.59;;;10.16;100.00
37610;BME280;23457;51.966;8.230;2023-03-14T08:21:19;98257.09;;;10.11;100.00
37610;BME280;23457;51.966;8.230;2023-03-14T08:23:46;98250.94;;;10.15;100.00
37610;BME280;23457;51.966;8.230;2023-03-14T08:26:13;98261.81;;;9.91;100.00
37610;BME280;23457;51.966;8.230;2023-03-14T08:28:39;98258.53;;;10.26;100.00
37610;BME280;23457;51.966;8.230;2023-03-14T08:31:06;98253.41;;;10.23;100.00
37610;BME280;23457;51.966;8.230;2023-03-14T08:33:33;98255.59;;;10.41;100.00
37610;BME280;23457;51.966;8.230;2023-03-14T08:36:00;98260.03;;;10.37;100.00
37610;BME280;23457;51.966;8.230;2023-03-14T08:38:27;98254.63;;;10.45;100.00
37610;BME280;23457;51.966;8.230;2023-03-14T08:40:58;98250.66;;;10.67;100.00
37610;BME280;23457;51.966;8.230;2023-03-14T08:43:26;98250.31;;;10.46;100.00
37610;BME280;23457;51.966;8.230;2023-03-14T08:45:53;98259.75;;;10.50;100.00
37610;BME280;23457;51.966;8.230;2023-03-14T08:48:20;98252.38;;;10.68;100.00
37610;BME280;23457;51.966;8.230;2023-03-14T08:50:47;98250.59;;;10.70;100.00
37610;BME280;23457;51.966;8.230;2023-03-14T08:53:14;98256.91;;;10.60;100.00
37610;BME280;23457;51.966;8.230;2023-03-14T08:55:40;98254.00;;;10.72;100.00
37610;BME280;23457;51.966;8.230;2023-03-14T08:58:07;98251.34;;;10.75;100.00
37610;BME280;23457;51.966;8.230;2023-03-14T09:00:34;98255.97;;;10.63;100.00
37610;BME280;23457;51.966;8.230;2023-03-14T09:03:00;98254.25;;;10.62;100.00
37610;BME280;23457;51.966;8.230;2023-03-14T09:05:27;98249.25;;;10.90;100.00
37610;BME280;23457;51.966;8.230;2023-03-14T09:07:53;98257.88;;;10.90;100.00
37610;BME280;23457;51.966;8.230;2023-03-14T09:10:20;98262.75;;;11.04;100.00
37610;BME280;23457;51.966;8.230;2023-03-14T09:12:47;98259.31;;;11.03;100.00
37610;BME280;23457;51.966;8.230;2023-03-14T09:15:13;98265.38;;;11.02;100.00
37610;BME280;23457;51.966;8.230;2023-03-14T09:17:43;98259.41;;;11.00;100.00
37610;BME280;23457;51.966;8.230;2023-03-14T09:20:10;98267.91;;;11.05;100.00
37610;BME280;23457;51.966;8.230;2023-03-14T09:22:37;98261.03;;;11.03;100.00
37610;BME280;23457;51.966;8.230;2023-03-14T09:25:04;98260.13;;;11.05;100.00
37610;BME280;23457;51.966;8.230;2023-03-14T09:27:31;98259.63;;;11.25;100.00
37610;BME280;23457;51.966;8.230;2023-03-14T09:29:58;98274.75;;;11.43;100.00
37610;BME280;23457;51.966;8.230;2023-03-14T09:32:25;98266.84;;;11.48;100.00
37610;BME280;23457;51.966;8.230;2023-03-14T09:34:51;98261.94;;;11.36;100.00
37610;BME280;23457;51.966;8.230;2023-03-14T09:37:18;98271.41;;;11.04;100.00
37610;BME280;23457;51.966;8.230;2023-03-14T09:39:46;98275.97;;;10.95;100.00
37610;BME280;23457;51.966;8.230;2023-03-14T09:42:15;98274.09;;;11.01;100.00
37610;BME280;23457;51.966;8.230;2023-03-14T09:44:56;98281.25;;;10.92;100.00
37610;BME280;23457;51.966;8.230;2023-03-14T09:47:23;98288.28;;;10.88;100.00
37610;BME280;23457;51.966;8.230;2023-03-14T09:49:50;98288.44;;;11.16;100.00
37610;BME280;23457;51.966;8.230;2023-03-14T09:52:36;98285.22;;;11.06;100.00
37610;BME280;23457;51.966;8.230;2023-03-14T09:55:26;98299.78;;;11.13;100.00
37610;BME280;23457;51.966;8.230;2023-03-14T09:57:57;98303.00;;;11.23;100.00
37610;BME280;23457;51.966;8.230;2023-03-14T10:00:28;98306.31;;;11.30;100.00
37610;BME280;23457;51.966;8.230;2023-03-14T10:05:41;98302.09;;;11.26;100.00
37610;BME280;23457;51.966;8.230;2023-03-14T10:08:12;98312.28;;;11.33;100.00
37610;BME280;23457;51.966;8.230;2023-03-14T10:10:40;98308.53;;;11.45;100.00
37610;BME280;23457;51.966;8.230;2023-03-14T10:15:37;98311.09;;;11.12;100.00
37610;BME280;23457;51.966;8.230;2023-03-14T10:18:10;98316.50;;;11.02;100.00
37610;BME280;23457;51.966;8.230;2023-03-14T10:20:41;98341.19;;;10.84;100.00
37610;BME280;23457;51.966;8.230;2023-03-14T10:25:43;98410.22;;;9.07;100.00
37610;BME280;23457;51.966;8.230;2023-03-14T10:28:29;98414.44;;;8.51;100.00
37610;BME280;23457;51.966;8.230;2023-03-14T10:30:57;98417.25;;;8.34;100.00
37610;BME280;23457;51.966;8.230;2023-03-14T10:33:27;98422.97;;;8.59;100.00
37610;BME280;23457;51.966;8.230;2023-03-14T10:36:00;98429.88;;;8.60;100.00
37610;BME280;23457;51.966;8.230;2023-03-14T10:38:30;98445.19;;;8.75;100.00
37610;BME280;23457;51.966;8.230;2023-03-14T10:40:58;98455.63;;;8.72;100.00
37610;BME280;23457;51.966;8.230;2023-03-14T10:43:30;98461.75;;;8.62;100.00
37610;BME280;23457;51.966;8.230;2023-03-14T10:46:06;98473.22;;;8.43;100.00
37610;BME280;23457;51.966;8.230;2023-03-14T10:48:56;98483.41;;;8.58;100.00
37610;BME280;23457;51.966;8.230;2023-03-14T10:51:27;98496.63;;;8.34;100.00
37610;BME280;23457;51.966;8.230;2023-03-14T10:54:02;98506.97;;;8.32;100.00
37610;BME280;23457;51.966;8.230;2023-03-14T10:56:36;98545.44;;;7.66;100.00
37610;BME280;23457;51.966;8.230;2023-03-14T10:59:07;98565.19;;;7.73;100.00
37610;BME280;23457;51.966;8.230;2023-03-14T11:02:04;98573.03;;;7.64;100.00
37610;BME280;23457;51.966;8.230;2023-03-14T11:07:33;98602.63;;;6.99;100.00
37610;BME280;23457;51.966;8.230;2023-03-14T11:15:53;98675.88;;;6.54;100.00
37610;BME280;23457;51.966;8.230;2023-03-14T11:27:27;98732.66;;;6.57;100.00
37610;BME280;23457;51.966;8.230;2023-03-14T11:33:08;98764.41;;;6.18;100.00
37610;BME280;23457;51.966;8.230;2023-03-14T11:36:01;98769.63;;;6.39;100.00
37610;BME280;23457;51.966;8.230;2023-03-14T11:38:49;98791.13;;;6.43;100.00
37610;BME280;23457;51.966;8.230;2023-03-14T11:41:23;98794.50;;;6.21;100.00
37610;BME280;23457;51.966;8.230;2023-03-14T11:43:59;98812.38;;;5.78;100.00
37610;BME280;23457;51.966;8.230;2023-03-14T11:46:34;98840.59;;;5.54;100.00
37610;BME280;23457;51.966;8.230;2023-03-14T11:49:13;98878.41;;;5.56;100.00
37610;BME280;23457;51.966;8.230;2023-03-14T11:51:51;98875.03;;;5.71;100.00
37610;BME280;23457;51.966;8.230;2023-03-14T11:54:25;98876.97;;;6.04;100.00
37610;BME280;23457;51.966;8.230;2023-03-14T11:56:57;98883.78;;;5.88;100.00
37610;BME280;23457;51.966;8.230;2023-03-14T12:10:37;98953.56;;;6.16;100.00
37610;BME280;23457;51.966;8.230;2023-03-14T12:13:10;98966.41;;;6.06;100.00
37610;BME280;23457;51.966;8.230;2023-03-14T12:15:40;98968.16;;;6.14;100.00
37610;BME280;23457;51.966;8.230;2023-03-14T12:20:57;98978.66;;;6.50;100.00
37610;BME280;23457;51.966;8.230;2023-03-14T12:23:26;98987.31;;;6.63;100.00
37610;BME280;23457;51.966;8.230;2023-03-14T12:26:26;98993.31;;;6.54;100.00
37610;BME280;23457;51.966;8.230;2023-03-14T12:48:20;99039.88;;;6.71;100.00
37610;BME280;23457;51.966;8.230;2023-03-14T12:50:55;99052.00;;;6.92;100.00
37610;BME280;23457;51.966;8.230;2023-03-14T12:53:29;99052.84;;;6.88;100.00
37610;BME280;23457;51.966;8.230;2023-03-14T12:58:44;99051.00;;;6.62;100.00
37610;BME280;23457;51.966;8.230;2023-03-14T13:01:19;99064.75;;;6.61;100.00
37610;BME280;23457;51.966;8.230;2023-03-14T13:06:51;99093.34;;;6.95;100.00
37610;BME280;23457;51.966;8.230;2023-03-14T13:12:03;99120.44;;;6.27;100.00
37610;BME280;23457;51.966;8.230;2023-03-14T13:14:35;99129.88;;;6.24;100.00
37610;BME280;23457;51.966;8.230;2023-03-14T13:17:03;99130.72;;;6.23;100.00
37610;BME280;23457;51.966;8.230;2023-03-14T13:19:52;99128.31;;;6.42;100.00
37610;BME280;23457;51.966;8.230;2023-03-14T13:22:24;99137.88;;;6.57;100.00
37610;BME280;23457;51.966;8.230;2023-03-14T13:25:12;99145.78;;;6.83;100.00
37610;BME280;23457;51.966;8.230;2023-03-14T13:27:40;99150.00;;;6.72;100.00
37610;BME280;23457;51.966;8.230;2023-03-14T13:30:22;99156.19;;;6.97;100.00
37610;BME280;23457;51.966;8.230;2023-03-14T13:32:50;99161.28;;;6.88;100.00
37610;BME280;23457;51.966;8.230;2023-03-14T13:37:47;99172.59;;;7.03;100.00
37610;BME280;23457;51.966;8.230;2023-03-14T13:40:26;99176.78;;;6.81;99.72
37610;BME280;23457;51.966;8.230;2023-03-14T13:45:47;99190.69;;;7.11;94.18
37610;BME280;23457;51.966;8.230;2023-03-14T13:48:16;99207.16;;;7.25;90.69
37610;BME280;23457;51.966;8.230;2023-03-14T13:51:05;99213.31;;;7.47;92.05
37610;BME280;23457;51.966;8.230;2023-03-14T13:53:45;99217.53;;;7.37;88.02
37610;BME280;23457;51.966;8.230;2023-03-14T13:56:13;99235.47;;;7.07;88.65
37610;BME280;23457;51.966;8.230;2023-03-14T13:58:40;99244.09;;;7.12;87.46
37610;BME280;23457;51.966;8.230;2023-03-14T14:01:19;99252.72;;;7.14;85.70
37610;BME280;23457;51.966;8.230;2023-03-14T14:03:52;99255.38;;;7.22;85.80
37610;BME280;23457;51.966;8.230;2023-03-14T14:06:22;99254.53;;;7.21;84.98
37610;BME280;23457;51.966;8.230;2023-03-14T14:08:49;99264.84;;;7.23;86.30
37610;BME280;23457;51.966;8.230;2023-03-14T14:11:44;99272.75;;;7.50;82.43
37610;BME280;23457;51.966;8.230;2023-03-14T14:14:32;99278.69;;;7.29;84.61
37610;BME280;23457;51.966;8.230;2023-03-14T14:17:01;99297.66;;;7.36;76.30
37610;BME280;23457;51.966;8.230;2023-03-14T14:19:32;99296.06;;;7.54;76.56
37610;BME280;23457;51.966;8.230;2023-03-14T14:22:00;99313.94;;;7.19;76.99
37610;BME280;23457;51.966;8.230;2023-03-14T14:24:31;99320.09;;;7.41;75.37
37610;BME280;23457;51.966;8.230;2023-03-14T14:27:01;99332.28;;;7.62;75.22
37610;BME280;23457;51.966;8.230;2023-03-14T14:29:31;99339.88;;;7.33;76.46
37610;BME280;23457;51.966;8.230;2023-03-14T14:34:57;99364.69;;;7.13;68.47
37610;BME280;23457;51.966;8.230;2023-03-14T14:37:30;99375.09;;;7.21;71.69
37610;BME280;23457;51.966;8.230;2023-03-14T14:40:00;99393.28;;;7.33;71.01
37610;BME280;23457;51.966;8.230;2023-03-14T14:42:30;99384.09;;;7.76;71.25
37610;BME280;23457;51.966;8.230;2023-03-14T14:44:57;99395.16;;;7.55;62.46
37610;BME280;23457;51.966;8.230;2023-03-14T14:47:26;99394.28;;;7.51;66.11
37610;BME280;23457;51.966;8.230;2023-03-14T14:49:54;99406.31;;;7.46;64.54